sensor_id;sensor_type;location;lat;lon;timestamp;temperature;humidity
1337;DHT22;662;48.814;9.318;2022-12-01T00:01:42;7.00;69.20
1337;DHT22;662;48.814;9.318;2022-12-01T00:04:07;6.90;69.10
1337;DHT22;662;48.814;9.318;2022-12-01T00:06:33;6.90;69.70
1337;DHT22;662;48.814;9.318;2022-12-01T00:08:58;6.90;69.10
1337;DHT22;662;48.814;9.318;2022-12-01T00:11:43;7.00;69.30
1337;DHT22;662;48.814;9.318;2022-12-01T00:14:09;7.00;70.00
1337;DHT22;662;48.814;9.318;2022-12-01T00:16:34;7.00;69.20
1337;DHT22;662;48.814;9.318;2022-12-01T00:19:00;7.00;69.30
1337;DHT22;662;48.814;9.318;2022-12-01T00:21:26;7.00;69.40
1337;DHT22;662;48.814;9.318;2022-12-01T00:23:54;7.00;69.50
1337;DHT22;662;48.814;9.318;2022-12-01T00:26:21;7.10;69.50
1337;DHT22;662;48.814;9.318;2022-12-01T00:28:52;7.00;69.00
1337;DHT22;662;48.814;9.318;2022-12-01T00:31:18;7.00;68.90
1337;DHT22;662;48.814;9.318;2022-12-01T00:33:44;7.00;69.00
1337;DHT22;662;48.814;9.318;2022-12-01T00:36:10;7.00;69.00
1337;DHT22;662;48.814;9.318;2022-12-01T00:38:35;6.90;69.00
1337;DHT22;662;48.814;9.318;2022-12-01T00:41:01;7.00;69.20
1337;DHT22;662;48.814;9.318;2022-12-01T00:43:27;7.00;69.20
1337;DHT22;662;48.814;9.318;2022-12-01T00:45:53;7.00;69.20
1337;DHT22;662;48.814;9.318;2022-12-01T00:48:20;7.00;69.20
1337;DHT22;662;48.814;9.318;2022-12-01T00:50:47;7.00;69.20
1337;DHT22;662;48.814;9.318;2022-12-01T00:53:13;7.00;69.20
1337;DHT22;662;48.814;9.318;2022-12-01T00:55:38;7.00;69.10
1337;DHT22;662;48.814;9.318;2022-12-01T00:58:04;7.00;69.00
1337;DHT22;662;48.814;9.318;2022-12-01T01:00:31;7.00;69.00
1337;DHT22;662;48.814;9.318;2022-12-01T01:02:57;7.00;69.00
1337;DHT22;662;48.814;9.318;2022-12-01T01:05:23;7.00;68.80
1337;DHT22;662;48.814;9.318;2022-12-01T01:07:48;7.00;68.70
1337;DHT22;662;48.814;9.318;2022-12-01T01:10:14;6.90;68.40
1337;DHT22;662;48.814;9.318;2022-12-01T01:12:40;6.90;68.30
1337;DHT22;662;48.814;9.318;2022-12-01T01:15:06;6.90;68.20
1337;DHT22;662;48.814;9.318;2022-12-01T01:17:32;6.80;67.90
1337;DHT22;662;48.814;9.318;2022-12-01T01:19:58;6.80;67.70
1337;DHT22;662;48.814;9.318;2022-12-01T01:22:23;6.80;67.60
1337;DHT22;662;48.814;9.318;2022-12-01T01:24:49;6.70;67.50
1337;DHT22;662;48.814;9.318;2022-12-01T01:27:15;6.70;67.70
1337;DHT22;662;48.814;9.318;2022-12-01T01:29:41;6.70;67.70
1337;DHT22;662;48.814;9.318;2022-12-01T01:32:07;6.70;67.80
1337;DHT22;662;48.814;9.318;2022-12-01T01:34:32;6.80;67.90
1337;DHT22;662;48.814;9.318;2022-12-01T01:36:58;6.70;67.80
1337;DHT22;662;48.814;9.318;2022-12-01T01:39:24;6.80;67.80
1337;DHT22;662;48.814;9.318;2022-12-01T01:41:49;6.80;67.90
1337;DHT22;662;48.814;9.318;2022-12-01T01:44:53;6.80;68.40
1337;DHT22;662;48.814;9.318;2022-12-01T01:47:44;6.80;67.70
1337;DHT22;662;48.814;9.318;2022-12-01T01:50:12;6.80;67.60
1337;DHT22;662;48.814;9.318;2022-12-01T01:52:42;6.80;67.50
1337;DHT22;662;48.814;9.318;2022-12-01T01:55:10;6.70;67.20
1337;DHT22;662;48.814;9.318;2022-12-01T01:57:37;6.70;67.10
1337;DHT22;662;48.814;9.318;2022-12-01T02:00:10;6.70;67.10
1337;DHT22;662;48.814;9.318;2022-12-01T02:02:37;6.80;67.20
1337;DHT22;662;48.814;9.318;2022-12-01T02:05:06;6.80;67.20
1337;DHT22;662;48.814;9.318;2022-12-01T02:07:37;6.80;67.30
1337;DHT22;662;48.814;9.318;2022-12-01T02:10:04;6.70;67.10
1337;DHT22;662;48.814;9.318;2022-12-01T02:12:55;6.70;67.00
1337;DHT22;662;48.814;9.318;2022-12-01T02:15:30;6.80;67.20
1337;DHT22;662;48.814;9.318;2022-12-01T02:29:21;6.70;67.20
1337;DHT22;662;48.814;9.318;2022-12-01T02:35:36;6.70;67.40
1337;DHT22;662;48.814;9.318;2022-12-01T02:37:31;6.60;67.20
1337;DHT22;662;48.814;9.318;2022-12-01T02:43:02;6.60;67.20
1337;DHT22;662;48.814;9.318;2022-12-01T02:45:54;6.60;67.10
1337;DHT22;662;48.814;9.318;2022-12-01T02:50:52;6.60;67.10
1337;DHT22;662;48.814;9.318;2022-12-01T02:53:19;6.50;67.00
1337;DHT22;662;48.814;9.318;2022-12-01T02:55:50;6.50;67.10
1337;DHT22;662;48.814;9.318;2022-12-01T02:58:16;6.50;67.80
1337;DHT22;662;48.814;9.318;2022-12-01T03:03:39;6.40;67.20
1337;DHT22;662;48.814;9.318;2022-12-01T03:06:23;6.40;67.30
1337;DHT22;662;48.814;9.318;2022-12-01T03:09:28;6.30;67.40
1337;DHT22;662;48.814;9.318;2022-12-01T03:12:20;6.30;67.50
1337;DHT22;662;48.814;9.318;2022-12-01T03:17:33;6.20;67.70
1337;DHT22;662;48.814;9.318;2022-12-01T03:22:47;6.20;68.00
1337;DHT22;662;48.814;9.318;2022-12-01T03:25:16;6.20;67.80
1337;DHT22;662;48.814;9.318;2022-12-01T03:27:43;6.10;67.70
1337;DHT22;662;48.814;9.318;2022-12-01T03:30:10;6.20;67.90
1337;DHT22;662;48.814;9.318;2022-12-01T03:32:49;6.20;67.90
1337;DHT22;662;48.814;9.318;2022-12-01T03:35:33;6.20;67.90
1337;DHT22;662;48.814;9.318;2022-12-01T03:38:23;6.20;67.90
1337;DHT22;662;48.814;9.318;2022-12-01T03:40:52;6.20;68.00
1337;DHT22;662;48.814;9.318;2022-12-01T03:43:30;6.20;68.00
1337;DHT22;662;48.814;9.318;2022-12-01T03:46:07;6.20;68.00
1337;DHT22;662;48.814;9.318;2022-12-01T03:48:35;6.30;68.10
1337;DHT22;662;48.814;9.318;2022-12-01T03:56:25;6.30;67.70
1337;DHT22;662;48.814;9.318;2022-12-01T03:58:54;6.30;67.70
1337;DHT22;662;48.814;9.318;2022-12-01T04:01:21;6.30;67.80
1337;DHT22;662;48.814;9.318;2022-12-01T04:03:47;6.30;67.70
1337;DHT22;662;48.814;9.318;2022-12-01T04:06:13;6.30;67.50
1337;DHT22;662;48.814;9.318;2022-12-01T04:08:39;6.30;67.50
1337;DHT22;662;48.814;9.318;2022-12-01T04:11:05;6.40;67.70
1337;DHT22;662;48.814;9.318;2022-12-01T04:13:50;6.40;68.40
1337;DHT22;662;48.814;9.318;2022-12-01T04:16:16;6.40;67.80
1337;DHT22;662;48.814;9.318;2022-12-01T04:18:41;6.50;67.80
1337;DHT22;662;48.814;9.318;2022-12-01T04:21:07;6.40;67.60
1337;DHT22;662;48.814;9.318;2022-12-01T04:23:33;6.50;67.60
1337;DHT22;662;48.814;9.318;2022-12-01T04:26:17;6.50;67.70
1337;DHT22;662;48.814;9.318;2022-12-01T04:28:42;6.50;67.60
1337;DHT22;662;48.814;9.318;2022-12-01T04:31:08;6.50;67.60
1337;DHT22;662;48.814;9.318;2022-12-01T04:33:33;6.50;67.40
1337;DHT22;662;48.814;9.318;2022-12-01T04:35:59;6.50;67.30
1337;DHT22;662;48.814;9.318;2022-12-01T04:38:25;6.50;67.20
1337;DHT22;662;48.814;9.318;2022-12-01T04:40:51;6.40;67.00
1337;DHT22;662;48.814;9.318;2022-12-01T04:43:17;6.40;67.00
1337;DHT22;662;48.814;9.318;2022-12-01T04:45:43;6.50;67.20
1337;DHT22;662;48.814;9.318;2022-12-01T04:48:09;6.50;67.10
1337;DHT22;662;48.814;9.318;2022-12-01T04:50:34;6.50;67.00
1337;DHT22;662;48.814;9.318;2022-12-01T04:53:00;6.50;66.90
1337;DHT22;662;48.814;9.318;2022-12-01T04:55:25;6.50;66.90
1337;DHT22;662;48.814;9.318;2022-12-01T04:57:51;6.50;66.80
1337;DHT22;662;48.814;9.318;2022-12-01T05:00:17;6.50;66.80
1337;DHT22;662;48.814;9.318;2022-12-01T05:02:43;6.50;66.70
1337;DHT22;662;48.814;9.318;2022-12-01T05:05:12;6.50;66.70
1337;DHT22;662;48.814;9.318;2022-12-01T05:07:38;6.40;66.50
1337;DHT22;662;48.814;9.318;2022-12-01T05:10:05;6.50;66.70
1337;DHT22;662;48.814;9.318;2022-12-01T05:12:31;6.40;66.50
1337;DHT22;662;48.814;9.318;2022-12-01T05:14:57;6.40;66.60
1337;DHT22;662;48.814;9.318;2022-12-01T05:17:22;6.30;66.60
1337;DHT22;662;48.814;9.318;2022-12-01T05:19:48;6.40;66.80
1337;DHT22;662;48.814;9.318;2022-12-01T05:22:32;6.30;66.80
1337;DHT22;662;48.814;9.318;2022-12-01T05:24:58;6.30;66.90
1337;DHT22;662;48.814;9.318;2022-12-01T05:27:23;6.30;67.00
1337;DHT22;662;48.814;9.318;2022-12-01T05:29:49;6.30;67.10
1337;DHT22;662;48.814;9.318;2022-12-01T05:32:14;6.20;67.10
1337;DHT22;662;48.814;9.318;2022-12-01T05:34:40;6.30;67.20
1337;DHT22;662;48.814;9.318;2022-12-01T05:37:06;6.20;67.20
1337;DHT22;662;48.814;9.318;2022-12-01T05:39:31;6.30;67.40
1337;DHT22;662;48.814;9.318;2022-12-01T05:41:57;6.30;67.40
1337;DHT22;662;48.814;9.318;2022-12-01T05:44:22;6.30;67.50
1337;DHT22;662;48.814;9.318;2022-12-01T05:46:48;6.30;67.40
1337;DHT22;662;48.814;9.318;2022-12-01T05:49:14;6.30;67.30
1337;DHT22;662;48.814;9.318;2022-12-01T05:51:41;6.40;67.50
1337;DHT22;662;48.814;9.318;2022-12-01T05:54:07;6.40;67.50
1337;DHT22;662;48.814;9.318;2022-12-01T05:56:33;6.30;67.40
1337;DHT22;662;48.814;9.318;2022-12-01T05:58:58;6.40;67.50
1337;DHT22;662;48.814;9.318;2022-12-01T06:01:24;6.40;67.40
1337;DHT22;662;48.814;9.318;2022-12-01T06:03:50;6.30;67.30
1337;DHT22;662;48.814;9.318;2022-12-01T06:06:16;6.30;67.30
1337;DHT22;662;48.814;9.318;2022-12-01T06:08:42;6.20;67.20
1337;DHT22;662;48.814;9.318;2022-12-01T06:11:08;6.20;67.30
1337;DHT22;662;48.814;9.318;2022-12-01T06:13:33;6.20;67.40
1337;DHT22;662;48.814;9.318;2022-12-01T06:16:01;6.20;67.50
1337;DHT22;662;48.814;9.318;2022-12-01T06:18:30;6.20;67.60
1337;DHT22;662;48.814;9.318;2022-12-01T06:20:56;6.20;67.70
1337;DHT22;662;48.814;9.318;2022-12-01T06:23:21;6.20;67.70
1337;DHT22;662;48.814;9.318;2022-12-01T06:25:48;6.20;67.80
1337;DHT22;662;48.814;9.318;2022-12-01T06:28:14;6.20;67.80
1337;DHT22;662;48.814;9.318;2022-12-01T06:30:39;6.20;67.80
1337;DHT22;662;48.814;9.318;2022-12-01T06:33:05;6.30;67.90
1337;DHT22;662;48.814;9.318;2022-12-01T06:35:31;6.30;67.90
1337;DHT22;662;48.814;9.318;2022-12-01T06:37:57;6.30;67.90
1337;DHT22;662;48.814;9.318;2022-12-01T06:40:22;6.30;67.90
1337;DHT22;662;48.814;9.318;2022-12-01T06:42:48;6.30;67.90
1337;DHT22;662;48.814;9.318;2022-12-01T06:45:13;6.40;68.20
1337;DHT22;662;48.814;9.318;2022-12-01T06:47:39;6.40;68.10
1337;DHT22;662;48.814;9.318;2022-12-01T06:50:05;6.40;68.10
1337;DHT22;662;48.814;9.318;2022-12-01T06:52:36;6.40;68.10
1337;DHT22;662;48.814;9.318;2022-12-01T06:55:03;6.40;68.00
1337;DHT22;662;48.814;9.318;2022-12-01T06:57:29;6.40;67.90
1337;DHT22;662;48.814;9.318;2022-12-01T06:59:55;6.30;67.70
1337;DHT22;662;48.814;9.318;2022-12-01T07:02:20;6.30;67.80
1337;DHT22;662;48.814;9.318;2022-12-01T07:04:46;6.30;67.80
1337;DHT22;662;48.814;9.318;2022-12-01T07:07:12;6.30;67.80
1337;DHT22;662;48.814;9.318;2022-12-01T07:09:38;6.30;67.80
1337;DHT22;662;48.814;9.318;2022-12-01T07:12:04;6.40;68.00
1337;DHT22;662;48.814;9.318;2022-12-01T07:14:30;6.40;68.00
1337;DHT22;662;48.814;9.318;2022-12-01T07:16:57;6.40;68.00
1337;DHT22;662;48.814;9.318;2022-12-01T07:19:22;6.40;68.10
1337;DHT22;662;48.814;9.318;2022-12-01T07:21:48;6.40;68.10
1337;DHT22;662;48.814;9.318;2022-12-01T07:24:14;6.40;68.00
1337;DHT22;662;48.814;9.318;2022-12-01T07:26:40;6.50;68.00
1337;DHT22;662;48.814;9.318;2022-12-01T07:29:07;6.40;67.90
1337;DHT22;662;48.814;9.318;2022-12-01T07:31:33;6.40;67.90
1337;DHT22;662;48.814;9.318;2022-12-01T07:33:59;6.50;67.90
1337;DHT22;662;48.814;9.318;2022-12-01T07:36:24;6.40;67.70
1337;DHT22;662;48.814;9.318;2022-12-01T07:38:50;6.40;67.60
1337;DHT22;662;48.814;9.318;2022-12-01T07:41:17;6.40;67.60
1337;DHT22;662;48.814;9.318;2022-12-01T07:43:46;6.40;67.60
1337;DHT22;662;48.814;9.318;2022-12-01T07:48:38;6.50;67.80
1337;DHT22;662;48.814;9.318;2022-12-01T07:51:06;6.50;67.70
1337;DHT22;662;48.814;9.318;2022-12-01T07:53:32;6.50;67.70
1337;DHT22;662;48.814;9.318;2022-12-01T07:55:58;6.50;67.70
1337;DHT22;662;48.814;9.318;2022-12-01T07:58:24;6.50;67.80
1337;DHT22;662;48.814;9.318;2022-12-01T08:00:49;6.50;67.70
1337;DHT22;662;48.814;9.318;2022-12-01T08:03:15;6.60;67.90
1337;DHT22;662;48.814;9.318;2022-12-01T08:05:40;6.60;67.90
1337;DHT22;662;48.814;9.318;2022-12-01T08:08:06;6.50;67.70
1337;DHT22;662;48.814;9.318;2022-12-01T08:10:32;6.50;67.60
1337;DHT22;662;48.814;9.318;2022-12-01T08:12:57;6.50;67.60
1337;DHT22;662;48.814;9.318;2022-12-01T08:15:23;6.50;67.50
1337;DHT22;662;48.814;9.318;2022-12-01T08:17:48;6.60;67.50
1337;DHT22;662;48.814;9.318;2022-12-01T08:20:14;6.60;67.60
1337;DHT22;662;48.814;9.318;2022-12-01T08:22:40;6.60;67.50
1337;DHT22;662;48.814;9.318;2022-12-01T08:25:06;6.60;67.50
1337;DHT22;662;48.814;9.318;2022-12-01T08:27:33;6.60;67.50
1337;DHT22;662;48.814;9.318;2022-12-01T08:29:59;6.60;67.60
1337;DHT22;662;48.814;9.318;2022-12-01T08:32:25;6.60;67.60
1337;DHT22;662;48.814;9.318;2022-12-01T08:34:50;6.60;67.50
1337;DHT22;662;48.814;9.318;2022-12-01T08:37:16;6.70;67.60
1337;DHT22;662;48.814;9.318;2022-12-01T08:39:41;6.70;67.60
1337;DHT22;662;48.814;9.318;2022-12-01T08:42:07;6.70;67.50
1337;DHT22;662;48.814;9.318;2022-12-01T08:44:33;6.70;67.40
1337;DHT22;662;48.814;9.318;2022-12-01T08:46:58;6.80;67.50
1337;DHT22;662;48.814;9.318;2022-12-01T08:49:24;6.80;67.40
1337;DHT22;662;48.814;9.318;2022-12-01T08:51:51;6.80;67.40
1337;DHT22;662;48.814;9.318;2022-12-01T08:54:16;6.80;67.40
1337;DHT22;662;48.814;9.318;2022-12-01T08:56:44;6.80;67.30
1337;DHT22;662;48.814;9.318;2022-12-01T08:59:10;6.80;67.80
1337;DHT22;662;48.814;9.318;2022-12-01T09:01:36;6.80;67.10
1337;DHT22;662;48.814;9.318;2022-12-01T09:04:19;6.80;67.20
1337;DHT22;662;48.814;9.318;2022-12-01T09:06:46;6.80;67.20
1337;DHT22;662;48.814;9.318;2022-12-01T09:09:16;6.90;67.40
1337;DHT22;662;48.814;9.318;2022-12-01T09:11:42;6.80;68.10
1337;DHT22;662;48.814;9.318;2022-12-01T09:14:08;6.80;67.30
1337;DHT22;662;48.814;9.318;2022-12-01T09:16:34;6.90;67.40
1337;DHT22;662;48.814;9.318;2022-12-01T09:19:00;6.90;67.30
1337;DHT22;662;48.814;9.318;2022-12-01T09:21:28;6.90;67.20
1337;DHT22;662;48.814;9.318;2022-12-01T09:23:58;6.90;67.20
1337;DHT22;662;48.814;9.318;2022-12-01T09:26:24;6.90;67.20
1337;DHT22;662;48.814;9.318;2022-12-01T09:28:56;6.90;67.20
1337;DHT22;662;48.814;9.318;2022-12-01T09:31:23;6.90;67.20
1337;DHT22;662;48.814;9.318;2022-12-01T09:33:56;6.90;67.20
1337;DHT22;662;48.814;9.318;2022-12-01T09:36:22;6.90;67.00
1337;DHT22;662;48.814;9.318;2022-12-01T09:38:48;7.00;67.10
1337;DHT22;662;48.814;9.318;2022-12-01T09:41:19;6.90;66.90
1337;DHT22;662;48.814;9.318;2022-12-01T09:44:18;6.90;66.90
1337;DHT22;662;48.814;9.318;2022-12-01T09:46:52;7.00;67.00
1337;DHT22;662;48.814;9.318;2022-12-01T09:49:25;6.90;66.90
1337;DHT22;662;48.814;9.318;2022-12-01T09:51:53;6.90;66.80
1337;DHT22;662;48.814;9.318;2022-12-01T09:54:20;7.00;66.90
1337;DHT22;662;48.814;9.318;2022-12-01T09:56:48;7.00;66.90
1337;DHT22;662;48.814;9.318;2022-12-01T09:59:31;7.00;67.00
1337;DHT22;662;48.814;9.318;2022-12-01T10:02:01;7.00;66.80
1337;DHT22;662;48.814;9.318;2022-12-01T10:04:37;7.10;66.90
1337;DHT22;662;48.814;9.318;2022-12-01T10:07:24;7.10;66.70
1337;DHT22;662;48.814;9.318;2022-12-01T10:12:21;7.10;66.60
1337;DHT22;662;48.814;9.318;2022-12-01T10:14:53;7.10;66.50
1337;DHT22;662;48.814;9.318;2022-12-01T10:17:39;7.10;66.50
1337;DHT22;662;48.814;9.318;2022-12-01T10:20:27;7.10;66.50
1337;DHT22;662;48.814;9.318;2022-12-01T10:28:44;7.10;66.30
1337;DHT22;662;48.814;9.318;2022-12-01T10:31:53;7.10;66.30
1337;DHT22;662;48.814;9.318;2022-12-01T10:36:54;7.20;66.40
1337;DHT22;662;48.814;9.318;2022-12-01T10:39:38;7.20;66.40
1337;DHT22;662;48.814;9.318;2022-12-01T10:44:59;7.20;66.40
1337;DHT22;662;48.814;9.318;2022-12-01T10:47:25;7.20;66.30
1337;DHT22;662;48.814;9.318;2022-12-01T10:49:53;7.30;66.40
1337;DHT22;662;48.814;9.318;2022-12-01T10:52:35;7.30;66.40
1337;DHT22;662;48.814;9.318;2022-12-01T10:55:04;7.30;66.40
1337;DHT22;662;48.814;9.318;2022-12-01T10:57:44;7.30;66.40
1337;DHT22;662;48.814;9.318;2022-12-01T11:00:24;7.30;66.40
1337;DHT22;662;48.814;9.318;2022-12-01T11:02:50;7.40;66.50
1337;DHT22;662;48.814;9.318;2022-12-01T11:05:24;7.40;66.40
1337;DHT22;662;48.814;9.318;2022-12-01T11:07:51;7.40;66.30
1337;DHT22;662;48.814;9.318;2022-12-01T11:10:25;7.40;66.20
1337;DHT22;662;48.814;9.318;2022-12-01T11:15:53;7.50;66.90
1337;DHT22;662;48.814;9.318;2022-12-01T11:21:24;7.50;66.10
1337;DHT22;662;48.814;9.318;2022-12-01T11:23:52;7.50;66.00
1337;DHT22;662;48.814;9.318;2022-12-01T11:26:19;7.50;66.00
1337;DHT22;662;48.814;9.318;2022-12-01T11:28:58;7.60;66.00
1337;DHT22;662;48.814;9.318;2022-12-01T11:31:37;7.60;66.10
1337;DHT22;662;48.814;9.318;2022-12-01T11:34:04;7.60;66.00
1337;DHT22;662;48.814;9.318;2022-12-01T11:36:35;7.60;65.90
1337;DHT22;662;48.814;9.318;2022-12-01T11:39:01;7.60;65.80
1337;DHT22;662;48.814;9.318;2022-12-01T11:41:34;7.60;65.90
1337;DHT22;662;48.814;9.318;2022-12-01T11:44:03;7.70;66.00
1337;DHT22;662;48.814;9.318;2022-12-01T11:46:35;7.70;66.00
1337;DHT22;662;48.814;9.318;2022-12-01T11:49:02;7.70;65.80
1337;DHT22;662;48.814;9.318;2022-12-01T11:51:31;7.60;65.80
1337;DHT22;662;48.814;9.318;2022-12-01T11:54:23;7.70;65.80
1337;DHT22;662;48.814;9.318;2022-12-01T11:56:50;7.70;65.80
1337;DHT22;662;48.814;9.318;2022-12-01T11:59:24;7.70;65.70
1337;DHT22;662;48.814;9.318;2022-12-01T12:02:22;7.70;65.70
1337;DHT22;662;48.814;9.318;2022-12-01T12:10:40;7.70;65.60
1337;DHT22;662;48.814;9.318;2022-12-01T12:13:26;7.80;65.70
1337;DHT22;662;48.814;9.318;2022-12-01T12:18:47;7.80;65.80
1337;DHT22;662;48.814;9.318;2022-12-01T12:21:29;7.80;65.90
1337;DHT22;662;48.814;9.318;2022-12-01T12:26:29;7.80;66.00
1337;DHT22;662;48.814;9.318;2022-12-01T12:31:54;7.90;66.00
1337;DHT22;662;48.814;9.318;2022-12-01T12:48:56;8.00;65.80
1337;DHT22;662;48.814;9.318;2022-12-01T12:51:26;8.00;65.80
1337;DHT22;662;48.814;9.318;2022-12-01T12:56:51;8.10;65.90
1337;DHT22;662;48.814;9.318;2022-12-01T12:59:25;8.10;65.80
1337;DHT22;662;48.814;9.318;2022-12-01T13:02:17;8.00;65.50
1337;DHT22;662;48.814;9.318;2022-12-01T13:08:03;8.00;65.50
1337;DHT22;662;48.814;9.318;2022-12-01T13:11:11;8.00;65.50
1337;DHT22;662;48.814;9.318;2022-12-01T13:16:35;8.00;65.40
1337;DHT22;662;48.814;9.318;2022-12-01T13:19:25;8.00;65.50
1337;DHT22;662;48.814;9.318;2022-12-01T13:21:50;8.00;65.60
1337;DHT22;662;48.814;9.318;2022-12-01T13:24:19;8.00;65.70
1337;DHT22;662;48.814;9.318;2022-12-01T13:26:49;8.00;65.70
1337;DHT22;662;48.814;9.318;2022-12-01T13:29:18;7.90;65.70
1337;DHT22;662;48.814;9.318;2022-12-01T13:31:48;7.90;65.80
1337;DHT22;662;48.814;9.318;2022-12-01T13:34:38;7.90;65.80
1337;DHT22;662;48.814;9.318;2022-12-01T13:37:06;7.90;65.80
1337;DHT22;662;48.814;9.318;2022-12-01T13:39:35;7.90;65.80
1337;DHT22;662;48.814;9.318;2022-12-01T13:42:06;7.80;65.80
1337;DHT22;662;48.814;9.318;2022-12-01T13:44:42;7.80;65.80
1337;DHT22;662;48.814;9.318;2022-12-01T13:52:28;7.80;66.10
1337;DHT22;662;48.814;9.318;2022-12-01T13:57:38;7.70;66.20
1337;DHT22;662;48.814;9.318;2022-12-01T14:06:04;7.70;66.20
1337;DHT22;662;48.814;9.318;2022-12-01T14:08:34;7.70;66.20
1337;DHT22;662;48.814;9.318;2022-12-01T14:11:17;7.70;66.20
1337;DHT22;662;48.814;9.318;2022-12-01T14:16:45;7.60;66.10
1337;DHT22;662;48.814;9.318;2022-12-01T14:21:58;7.60;66.20
1337;DHT22;662;48.814;9.318;2022-12-01T14:25:00;7.60;66.30
1337;DHT22;662;48.814;9.318;2022-12-01T14:27:34;7.60;66.30
1337;DHT22;662;48.814;9.318;2022-12-01T14:38:51;7.60;66.60
1337;DHT22;662;48.814;9.318;2022-12-01T14:49:46;7.60;66.90
1337;DHT22;662;48.814;9.318;2022-12-01T14:52:29;7.60;67.00
1337;DHT22;662;48.814;9.318;2022-12-01T14:55:02;7.60;67.00
1337;DHT22;662;48.814;9.318;2022-12-01T14:57:42;7.50;66.90
1337;DHT22;662;48.814;9.318;2022-12-01T15:02:46;7.50;66.90
1337;DHT22;662;48.814;9.318;2022-12-01T15:05:15;7.50;67.00
1337;DHT22;662;48.814;9.318;2022-12-01T15:07:44;7.50;67.10
1337;DHT22;662;48.814;9.318;2022-12-01T15:10:28;7.50;67.10
1337;DHT22;662;48.814;9.318;2022-12-01T15:13:11;7.50;67.30
1337;DHT22;662;48.814;9.318;2022-12-01T15:15:52;7.50;67.30
1337;DHT22;662;48.814;9.318;2022-12-01T15:18:26;7.50;67.30
1337;DHT22;662;48.814;9.318;2022-12-01T15:21:25;7.50;67.40
1337;DHT22;662;48.814;9.318;2022-12-01T15:24:26;7.50;67.50
1337;DHT22;662;48.814;9.318;2022-12-01T15:26:47;7.50;67.50
1337;DHT22;662;48.814;9.318;2022-12-01T15:29:28;7.50;67.50
1337;DHT22;662;48.814;9.318;2022-12-01T15:32:00;7.50;67.60
1337;DHT22;662;48.814;9.318;2022-12-01T15:34:37;7.60;67.70
1337;DHT22;662;48.814;9.318;2022-12-01T15:37:08;7.50;67.60
1337;DHT22;662;48.814;9.318;2022-12-01T15:39:41;7.60;67.70
1337;DHT22;662;48.814;9.318;2022-12-01T15:42:20;7.60;67.80
1337;DHT22;662;48.814;9.318;2022-12-01T15:45:03;7.60;67.80
1337;DHT22;662;48.814;9.318;2022-12-01T15:53:02;7.60;67.90
1337;DHT22;662;48.814;9.318;2022-12-01T15:55:37;7.60;67.90
1337;DHT22;662;48.814;9.318;2022-12-01T15:58:07;7.60;68.00
1337;DHT22;662;48.814;9.318;2022-12-01T16:00:34;7.60;68.00
1337;DHT22;662;48.814;9.318;2022-12-01T16:03:00;7.60;68.10
1337;DHT22;662;48.814;9.318;2022-12-01T16:05:34;7.60;68.10
1337;DHT22;662;48.814;9.318;2022-12-01T16:08:18;7.60;68.10
1337;DHT22;662;48.814;9.318;2022-12-01T16:10:44;7.60;68.20
1337;DHT22;662;48.814;9.318;2022-12-01T16:13:48;7.60;68.30
1337;DHT22;662;48.814;9.318;2022-12-01T16:19:04;7.60;68.50
1337;DHT22;662;48.814;9.318;2022-12-01T16:22:12;7.60;68.60
1337;DHT22;662;48.814;9.318;2022-12-01T16:27:22;7.60;68.90
1337;DHT22;662;48.814;9.318;2022-12-01T16:32:33;7.60;69.20
1337;DHT22;662;48.814;9.318;2022-12-01T16:35:00;7.50;69.20
1337;DHT22;662;48.814;9.318;2022-12-01T16:37:26;7.50;69.30
1337;DHT22;662;48.814;9.318;2022-12-01T16:39:51;7.50;69.50
1337;DHT22;662;48.814;9.318;2022-12-01T16:42:19;7.50;69.40
1337;DHT22;662;48.814;9.318;2022-12-01T16:44:46;7.50;69.50
1337;DHT22;662;48.814;9.318;2022-12-01T16:47:23;7.50;69.60
1337;DHT22;662;48.814;9.318;2022-12-01T16:49:50;7.50;69.60
1337;DHT22;662;48.814;9.318;2022-12-01T16:52:17;7.50;69.70
1337;DHT22;662;48.814;9.318;2022-12-01T16:54:42;7.50;69.70
1337;DHT22;662;48.814;9.318;2022-12-01T16:57:08;7.50;69.80
1337;DHT22;662;48.814;9.318;2022-12-01T16:59:34;7.50;69.80
1337;DHT22;662;48.814;9.318;2022-12-01T17:02:00;7.50;69.90
1337;DHT22;662;48.814;9.318;2022-12-01T17:04:26;7.50;69.90
1337;DHT22;662;48.814;9.318;2022-12-01T17:06:52;7.60;70.00
1337;DHT22;662;48.814;9.318;2022-12-01T17:09:17;7.60;70.00
1337;DHT22;662;48.814;9.318;2022-12-01T17:11:43;7.60;70.10
1337;DHT22;662;48.814;9.318;2022-12-01T17:14:08;7.60;70.00
1337;DHT22;662;48.814;9.318;2022-12-01T17:16:34;7.60;70.10
1337;DHT22;662;48.814;9.318;2022-12-01T17:19:01;7.60;70.00
1337;DHT22;662;48.814;9.318;2022-12-01T17:21:27;7.60;70.10
1337;DHT22;662;48.814;9.318;2022-12-01T17:23:53;7.60;70.00
1337;DHT22;662;48.814;9.318;2022-12-01T17:26:20;7.60;70.00
1337;DHT22;662;48.814;9.318;2022-12-01T17:28:46;7.60;70.00
1337;DHT22;662;48.814;9.318;2022-12-01T17:31:12;7.70;70.10
1337;DHT22;662;48.814;9.318;2022-12-01T17:33:38;7.70;70.00
1337;DHT22;662;48.814;9.318;2022-12-01T17:36:10;7.70;70.00
1337;DHT22;662;48.814;9.318;2022-12-01T17:38:37;7.70;70.10
1337;DHT22;662;48.814;9.318;2022-12-01T17:41:06;7.70;70.10
1337;DHT22;662;48.814;9.318;2022-12-01T17:43:36;7.70;70.10
1337;DHT22;662;48.814;9.318;2022-12-01T17:46:04;7.70;70.00
1337;DHT22;662;48.814;9.318;2022-12-01T17:48:41;7.70;70.00
1337;DHT22;662;48.814;9.318;2022-12-01T17:51:08;7.70;70.10
1337;DHT22;662;48.814;9.318;2022-12-01T17:53:34;7.70;70.00
1337;DHT22;662;48.814;9.318;2022-12-01T17:56:00;7.70;70.00
1337;DHT22;662;48.814;9.318;2022-12-01T17:58:26;7.80;70.10
1337;DHT22;662;48.814;9.318;2022-12-01T18:00:52;7.70;70.00
1337;DHT22;662;48.814;9.318;2022-12-01T18:03:19;7.70;69.90
1337;DHT22;662;48.814;9.318;2022-12-01T18:05:53;7.80;70.00
1337;DHT22;662;48.814;9.318;2022-12-01T18:08:19;7.70;69.90
1337;DHT22;662;48.814;9.318;2022-12-01T18:10:45;7.70;70.00
1337;DHT22;662;48.814;9.318;2022-12-01T18:13:11;7.70;70.10
1337;DHT22;662;48.814;9.318;2022-12-01T18:15:38;7.70;69.90
1337;DHT22;662;48.814;9.318;2022-12-01T18:18:03;7.70;70.00
1337;DHT22;662;48.814;9.318;2022-12-01T18:20:29;7.70;70.00
1337;DHT22;662;48.814;9.318;2022-12-01T18:22:55;7.70;70.00
1337;DHT22;662;48.814;9.318;2022-12-01T18:25:20;7.70;70.00
1337;DHT22;662;48.814;9.318;2022-12-01T18:27:46;7.70;70.00
1337;DHT22;662;48.814;9.318;2022-12-01T18:30:12;7.70;70.00
1337;DHT22;662;48.814;9.318;2022-12-01T18:32:38;7.70;70.10
1337;DHT22;662;48.814;9.318;2022-12-01T18:35:04;7.70;70.10
1337;DHT22;662;48.814;9.318;2022-12-01T18:37:30;7.80;70.20
1337;DHT22;662;48.814;9.318;2022-12-01T18:39:56;7.80;70.20
1337;DHT22;662;48.814;9.318;2022-12-01T18:42:21;7.80;70.20
1337;DHT22;662;48.814;9.318;2022-12-01T18:44:47;7.80;70.30
1337;DHT22;662;48.814;9.318;2022-12-01T18:47:13;7.80;70.20
1337;DHT22;662;48.814;9.318;2022-12-01T18:49:38;7.80;70.30
1337;DHT22;662;48.814;9.318;2022-12-01T18:52:04;7.80;70.40
1337;DHT22;662;48.814;9.318;2022-12-01T18:54:30;7.80;70.30
1337;DHT22;662;48.814;9.318;2022-12-01T18:56:55;7.80;70.40
1337;DHT22;662;48.814;9.318;2022-12-01T18:59:24;7.70;70.30
1337;DHT22;662;48.814;9.318;2022-12-01T19:01:50;7.80;70.40
1337;DHT22;662;48.814;9.318;2022-12-01T19:04:16;7.80;70.50
1337;DHT22;662;48.814;9.318;2022-12-01T19:06:43;7.80;70.60
1337;DHT22;662;48.814;9.318;2022-12-01T19:09:11;7.80;70.70
1337;DHT22;662;48.814;9.318;2022-12-01T19:11:38;7.70;70.50
1337;DHT22;662;48.814;9.318;2022-12-01T19:14:05;7.80;70.70
1337;DHT22;662;48.814;9.318;2022-12-01T19:16:31;7.80;70.70
1337;DHT22;662;48.814;9.318;2022-12-01T19:18:57;7.80;70.70